createdAt,value
2023-04-21T00:00:53.837Z,8.50
2023-04-21T00:03:24.430Z,8.40
2023-04-21T00:05:51.982Z,8.40
2023-04-21T00:08:19.257Z,8.40
2023-04-21T00:10:49.469Z,8.30
2023-04-21T00:13:16.609Z,8.30
2023-04-21T00:15:43.793Z,8.40
2023-04-21T00:18:10.960Z,8.30
2023-04-21T00:20:39.312Z,8.30
2023-04-21T00:23:06.246Z,8.20
2023-04-21T00:25:33.079Z,8.20
2023-04-21T00:27:59.908Z,8.10
2023-04-21T00:30:26.892Z,8.20
2023-04-21T00:32:53.777Z,8.30
2023-04-21T00:35:20.620Z,8.20
2023-04-21T00:37:47.460Z,8.30
2023-04-21T00:40:14.430Z,8.20
2023-04-21T00:42:41.366Z,8.20
2023-04-21T00:45:09.312Z,8.30
2023-04-21T00:47:36.458Z,8.40
2023-04-21T00:50:04.480Z,8.50
2023-04-21T00:52:32.171Z,8.50
2023-04-21T00:55:00.314Z,8.50
2023-04-21T00:57:28.950Z,8.50
2023-04-21T00:59:55.893Z,8.50
2023-04-21T01:02:23.496Z,8.40
2023-04-21T01:04:50.814Z,8.30
2023-04-21T01:07:17.850Z,8.30
2023-04-21T01:09:44.825Z,8.40
2023-04-21T01:12:12.665Z,8.50
2023-04-21T01:14:40.962Z,8.60
2023-04-21T01:17:08.789Z,8.70
2023-04-21T01:19:42.229Z,8.70
2023-04-21T01:22:13.429Z,8.70
2023-04-21T01:24:43.560Z,8.70
2023-04-21T01:27:12.780Z,8.80
2023-04-21T01:29:42.368Z,8.90
2023-04-21T01:32:18.363Z,8.80
2023-04-21T01:34:45.841Z,8.80
2023-04-21T01:37:15.002Z,8.80
2023-04-21T01:39:45.659Z,8.80
2023-04-21T01:42:13.670Z,8.80
2023-04-21T01:44:40.900Z,8.90
2023-04-21T01:47:08.348Z,9.00
2023-04-21T01:49:35.154Z,9.00
2023-04-21T01:52:02.247Z,9.00
2023-04-21T01:54:29.499Z,9.20
2023-04-21T01:56:56.526Z,9.20
2023-04-21T01:59:23.461Z,9.00
2023-04-21T02:01:50.512Z,9.00
2023-04-21T02:04:18.143Z,8.90
2023-04-21T02:06:45.043Z,8.90
2023-04-21T02:09:12.061Z,8.90
2023-04-21T02:11:39.137Z,8.90
2023-04-21T02:14:06.006Z,9.00
2023-04-21T02:16:32.980Z,8.90
2023-04-21T02:18:59.945Z,9.00
2023-04-21T02:21:27.949Z,9.10
2023-04-21T02:23:54.995Z,8.90
2023-04-21T02:26:22.015Z,8.90
2023-04-21T02:28:49.716Z,8.90
2023-04-21T02:31:17.753Z,9.10
2023-04-21T02:33:45.200Z,9.10
2023-04-21T02:36:12.983Z,9.20
2023-04-21T02:38:39.947Z,9.10
2023-04-21T02:41:06.971Z,8.90
2023-04-21T02:43:33.958Z,9.00
2023-04-21T02:46:06.793Z,9.00
2023-04-21T02:48:34.677Z,9.10
2023-04-21T02:51:01.820Z,9.00
2023-04-21T02:53:29.125Z,9.00
2023-04-21T02:55:56.442Z,9.10
2023-04-21T02:58:23.668Z,9.10
2023-04-21T03:00:51.715Z,9.10
2023-04-21T03:03:19.068Z,9.10
2023-04-21T03:05:46.690Z,9.10
2023-04-21T03:08:16.047Z,9.20
2023-04-21T03:10:42.911Z,9.30
2023-04-21T03:13:12.019Z,9.20
2023-04-21T03:15:44.175Z,9.20
2023-04-21T03:18:11.484Z,9.10
2023-04-21T03:20:38.370Z,9.00
2023-04-21T03:23:05.451Z,9.00
2023-04-21T03:25:32.374Z,9.00
2023-04-21T03:27:59.268Z,9.10
2023-04-21T03:30:26.487Z,9.00
2023-04-21T03:32:55.515Z,8.90
2023-04-21T03:35:22.822Z,9.00
2023-04-21T03:37:52.413Z,9.00
2023-04-21T03:40:19.220Z,9.00
2023-04-21T03:42:46.128Z,9.00
2023-04-21T03:45:13.238Z,9.00
2023-04-21T03:47:40.408Z,9.10
2023-04-21T03:50:07.954Z,9.20
2023-04-21T03:52:34.895Z,9.20
2023-04-21T03:55:02.049Z,9.00
2023-04-21T03:57:29.012Z,8.80
2023-04-21T03:59:56.000Z,8.90
2023-04-21T04:02:23.122Z,9.00
2023-04-21T04:04:50.679Z,9.00
2023-04-21T04:07:17.770Z,9.00
2023-04-21T04:09:44.777Z,8.90
2023-04-21T04:12:11.928Z,8.90
2023-04-21T04:14:39.592Z,8.90
2023-04-21T04:17:06.680Z,8.80
2023-04-21T04:19:33.978Z,8.80
2023-04-21T04:22:01.488Z,8.70
2023-04-21T04:24:28.649Z,8.80
2023-04-21T04:26:55.856Z,8.80
2023-04-21T04:29:23.103Z,9.00
2023-04-21T04:31:53.398Z,9.00
2023-04-21T04:34:20.723Z,9.00
2023-04-21T04:36:48.212Z,9.00
2023-04-21T04:39:16.683Z,9.20
2023-04-21T04:41:43.676Z,9.30
2023-04-21T04:44:11.325Z,9.10
2023-04-21T04:46:39.534Z,9.00
2023-04-21T04:49:06.420Z,8.90
2023-04-21T04:51:33.792Z,9.00
2023-04-21T04:54:01.161Z,9.10
2023-04-21T04:59:11.075Z,9.10
2023-04-21T05:01:40.151Z,9.20
2023-04-21T05:04:07.350Z,9.20
2023-04-21T05:06:34.484Z,9.30
2023-04-21T05:09:01.569Z,9.20
2023-04-21T05:11:28.447Z,9.30
2023-04-21T05:13:55.690Z,9.20
2023-04-21T05:16:22.727Z,9.30
2023-04-21T05:18:54.159Z,9.30
2023-04-21T05:21:28.495Z,9.20
2023-04-21T05:23:59.556Z,9.30
2023-04-21T05:26:27.854Z,9.40
2023-04-21T05:28:58.866Z,9.30
2023-04-21T05:31:26.403Z,9.40
2023-04-21T05:33:53.908Z,9.40
2023-04-21T05:36:21.067Z,9.40
2023-04-21T05:38:48.184Z,9.40
2023-04-21T05:41:16.049Z,9.50
2023-04-21T05:43:42.954Z,9.40
2023-04-21T05:46:11.319Z,9.40
2023-04-21T05:48:38.647Z,9.40
2023-04-21T05:51:18.380Z,9.40
2023-04-21T05:53:46.630Z,9.40
2023-04-21T05:56:14.777Z,9.50
2023-04-21T05:58:41.964Z,9.50
2023-04-21T06:01:09.223Z,9.60
2023-04-21T06:03:37.165Z,9.60
2023-04-21T06:06:06.175Z,9.50
2023-04-21T06:08:33.610Z,9.50
2023-04-21T06:11:00.910Z,9.60
2023-04-21T06:13:27.912Z,9.60
2023-04-21T06:15:55.389Z,9.50
2023-04-21T06:18:22.494Z,9.60
2023-04-21T06:20:53.811Z,9.60
2023-04-21T06:23:21.657Z,9.60
2023-04-21T06:26:00.364Z,9.50
2023-04-21T06:28:27.323Z,9.60
2023-04-21T06:30:56.905Z,9.50
2023-04-21T06:33:23.959Z,9.70
2023-04-21T06:35:50.872Z,9.60
2023-04-21T06:38:17.753Z,9.50
2023-04-21T06:40:45.201Z,9.60
2023-04-21T06:43:12.174Z,9.50
2023-04-21T06:45:39.052Z,9.60
2023-04-21T06:48:06.339Z,9.70
2023-04-21T06:50:33.292Z,9.90
2023-04-21T06:53:00.276Z,10.10
2023-04-21T06:55:27.340Z,9.90
2023-04-21T06:57:54.349Z,10.00
2023-04-21T07:00:21.487Z,10.10
2023-04-21T07:02:50.468Z,10.00
2023-04-21T07:05:17.818Z,10.00
2023-04-21T07:07:44.861Z,10.10
2023-04-21T07:10:11.715Z,10.20
2023-04-21T07:12:38.621Z,10.30
2023-04-21T07:15:06.462Z,10.40
2023-04-21T07:17:33.346Z,10.40
2023-04-21T07:20:00.276Z,10.40
2023-04-21T07:22:27.301Z,10.40
2023-04-21T07:24:54.148Z,10.70
2023-04-21T07:27:21.025Z,10.80
2023-04-21T07:29:47.968Z,10.80
2023-04-21T07:32:14.776Z,10.90
2023-04-21T07:34:41.641Z,11.00
2023-04-21T07:37:08.485Z,10.80
2023-04-21T07:39:35.383Z,10.80
2023-04-21T07:42:02.368Z,10.80
2023-04-21T07:44:29.521Z,10.70
2023-04-21T07:46:56.526Z,10.60
2023-04-21T07:49:23.657Z,10.50
2023-04-21T07:51:50.881Z,10.70
2023-04-21T07:54:17.798Z,10.80
2023-04-21T07:56:44.695Z,11.10
2023-04-21T07:59:11.545Z,11.30
2023-04-21T08:01:38.590Z,11.20
2023-04-21T08:04:06.798Z,11.10
2023-04-21T08:06:33.885Z,11.20
2023-04-21T08:09:01.084Z,11.30
2023-04-21T08:11:28.695Z,11.20
2023-04-21T08:13:55.494Z,11.10
2023-04-21T08:16:22.574Z,10.90
2023-04-21T08:18:49.799Z,11.00
2023-04-21T08:21:16.847Z,11.00
2023-04-21T08:23:43.854Z,10.70
2023-04-21T08:26:11.032Z,10.90
2023-04-21T08:28:38.053Z,11.10
2023-04-21T08:31:05.432Z,10.90
2023-04-21T08:33:32.483Z,10.80
2023-04-21T08:36:05.791Z,10.70
2023-04-21T08:38:39.764Z,10.80
2023-04-21T08:41:07.663Z,10.90
2023-04-21T08:43:34.765Z,10.80
2023-04-21T08:46:06.812Z,10.60
2023-04-21T08:48:37.501Z,10.60
2023-04-21T08:51:06.857Z,10.70
2023-04-21T08:53:33.762Z,10.70
2023-04-21T08:56:10.732Z,10.70
2023-04-21T08:58:38.833Z,10.80
2023-04-21T09:01:05.903Z,10.80
2023-04-21T09:03:34.409Z,10.80
2023-04-21T09:06:41.293Z,10.90
2023-04-21T09:09:08.195Z,10.90
2023-04-21T09:11:35.207Z,11.10
2023-04-21T09:14:02.105Z,11.00
2023-04-21T09:16:33.393Z,11.10
2023-04-21T09:19:01.195Z,11.30
2023-04-21T09:21:32.020Z,11.50
2023-04-21T09:24:06.056Z,11.60
2023-04-21T09:26:35.189Z,11.60
2023-04-21T09:29:07.334Z,11.40
2023-04-21T09:31:36.452Z,11.60
2023-04-21T09:34:03.454Z,11.60
2023-04-21T09:36:32.213Z,11.60
2023-04-21T09:41:34.194Z,11.60
2023-04-21T09:44:05.001Z,11.40
2023-04-21T09:46:37.142Z,11.40
2023-04-21T09:49:05.801Z,11.30
2023-04-21T09:51:56.401Z,11.40
2023-04-21T09:54:29.512Z,11.60
2023-04-21T09:57:02.863Z,11.90
2023-04-21T09:59:36.743Z,12.10
2023-04-21T10:02:08.808Z,12.30
2023-04-21T10:04:39.037Z,12.20
2023-04-21T10:07:06.856Z,12.20
2023-04-21T10:09:41.626Z,12.20
2023-04-21T10:12:10.049Z,12.40
2023-04-21T10:14:37.212Z,12.60
2023-04-21T10:17:05.219Z,12.70
2023-04-21T10:19:36.391Z,12.80
2023-04-21T10:22:03.286Z,12.90
2023-04-21T10:24:31.385Z,12.90
2023-04-21T10:26:59.715Z,13.30
2023-04-21T10:29:40.291Z,13.60
2023-04-21T10:32:11.495Z,13.90
2023-04-21T10:34:39.260Z,14.00
2023-04-21T10:37:06.265Z,14.40
2023-04-21T10:39:37.439Z,14.70
2023-04-21T10:42:13.594Z,14.70
2023-04-21T10:44:58.585Z,15.00
2023-04-21T10:47:44.478Z,14.80
2023-04-21T10:50:23.983Z,15.10
2023-04-21T10:53:13.343Z,15.30
2023-04-21T10:55:42.443Z,15.80
2023-04-21T10:58:10.053Z,16.00
2023-04-21T11:00:41.070Z,16.70
2023-04-21T11:03:08.587Z,16.80
2023-04-21T11:05:41.516Z,16.60
2023-04-21T11:08:14.689Z,16.50
2023-04-21T11:10:57.400Z,16.80
2023-04-21T11:13:26.674Z,17.20
2023-04-21T11:16:07.642Z,16.90
2023-04-21T11:18:42.747Z,16.90
2023-04-21T11:21:24.518Z,17.50
2023-04-21T11:23:56.212Z,17.70
2023-04-21T11:26:40.209Z,18.60
2023-04-21T11:29:08.689Z,18.80
2023-04-21T11:31:37.735Z,18.70
2023-04-21T11:34:07.028Z,18.30
2023-04-21T11:36:39.672Z,18.40
2023-04-21T11:39:11.021Z,18.20
2023-04-21T11:41:45.449Z,18.00
2023-04-21T11:44:14.756Z,18.20
2023-04-21T11:46:46.745Z,18.20
2023-04-21T11:49:17.304Z,18.30
2023-04-21T11:51:46.854Z,18.60
2023-04-21T11:54:14.717Z,18.60
2023-04-21T11:56:43.426Z,18.70
2023-04-21T11:59:24.992Z,19.00
2023-04-21T12:01:54.642Z,19.30
2023-04-21T12:04:24.174Z,19.20
2023-04-21T12:07:02.885Z,19.80
2023-04-21T12:09:30.462Z,19.60
2023-04-21T12:11:59.174Z,19.50
2023-04-21T12:14:29.244Z,19.90
2023-04-21T12:16:58.103Z,20.20
2023-04-21T12:19:36.234Z,20.60
2023-04-21T12:22:08.555Z,20.70
2023-04-21T12:24:36.800Z,20.40
2023-04-21T12:27:04.989Z,20.70
2023-04-21T12:29:32.161Z,20.80
2023-04-21T12:31:59.380Z,20.70
2023-04-21T12:34:26.456Z,20.00
2023-04-21T12:36:53.366Z,19.80
2023-04-21T12:39:22.001Z,19.50
2023-04-21T12:41:49.047Z,19.30
2023-04-21T12:44:15.966Z,18.90
2023-04-21T12:46:42.790Z,19.00
2023-04-21T12:49:11.162Z,19.40
2023-04-21T12:51:38.228Z,20.20
2023-04-21T12:54:05.332Z,20.50
2023-04-21T12:56:32.404Z,20.50
2023-04-21T12:58:59.457Z,20.60
2023-04-21T13:01:26.487Z,20.60
2023-04-21T13:03:54.004Z,21.20
2023-04-21T13:06:21.088Z,21.40
2023-04-21T13:08:48.267Z,21.70
2023-04-21T13:11:15.426Z,21.50
2023-04-21T13:13:42.518Z,21.30
2023-04-21T13:16:09.405Z,21.50
2023-04-21T13:18:37.586Z,21.60
2023-04-21T13:21:04.600Z,22.00
2023-04-21T13:23:31.593Z,22.30
2023-04-21T13:25:58.802Z,21.90
2023-04-21T13:28:26.859Z,22.20
2023-04-21T13:30:54.447Z,22.50
2023-04-21T13:33:21.974Z,22.20
2023-04-21T13:35:49.519Z,22.00
2023-04-21T13:38:16.805Z,21.80
2023-04-21T13:40:43.679Z,21.70
2023-04-21T13:43:10.987Z,21.30
2023-04-21T13:45:37.948Z,21.00
2023-04-21T13:48:05.010Z,20.80
2023-04-21T13:50:32.477Z,20.60
2023-04-21T13:52:59.280Z,20.40
2023-04-21T13:55:26.333Z,20.10
2023-04-21T13:57:53.298Z,19.80
2023-04-21T14:00:20.373Z,19.70
2023-04-21T14:02:48.100Z,19.60
2023-04-21T14:05:17.241Z,19.50
2023-04-21T14:07:44.652Z,19.50
2023-04-21T14:10:14.651Z,20.10
2023-04-21T14:12:41.612Z,20.20
2023-04-21T14:15:09.050Z,20.20
2023-04-21T14:17:36.136Z,19.40
2023-04-21T14:20:04.130Z,19.30
2023-04-21T14:22:30.969Z,19.10
2023-04-21T14:24:58.017Z,18.90
2023-04-21T14:27:25.116Z,18.90
2023-04-21T14:29:52.544Z,18.90
2023-04-21T14:32:20.888Z,19.10
2023-04-21T14:34:48.287Z,19.20
2023-04-21T14:37:15.567Z,19.30
2023-04-21T14:39:42.551Z,19.20
2023-04-21T14:42:09.404Z,19.40
2023-04-21T14:44:36.216Z,19.20
2023-04-21T14:47:09.605Z,19.00
2023-04-21T14:49:38.426Z,18.80
2023-04-21T14:52:05.641Z,18.50
2023-04-21T14:54:32.757Z,18.20
2023-04-21T14:57:17.846Z,18.00
2023-04-21T14:59:46.869Z,18.20
2023-04-21T15:02:14.712Z,18.30
2023-04-21T15:04:42.976Z,18.40
2023-04-21T15:07:10.037Z,18.20
2023-04-21T15:09:37.469Z,17.00
2023-04-21T15:12:05.206Z,15.80
2023-04-21T15:14:32.542Z,14.70
2023-04-21T15:16:59.585Z,13.80
2023-04-21T15:19:26.865Z,13.50
2023-04-21T15:21:53.946Z,13.40
2023-04-21T15:24:21.091Z,13.40
2023-04-21T15:26:48.193Z,13.50
2023-04-21T15:29:15.317Z,13.30
2023-04-21T15:31:42.393Z,13.40
2023-04-21T15:34:09.635Z,12.90
2023-04-21T15:36:36.669Z,12.70
2023-04-21T15:39:04.079Z,12.80
2023-04-21T15:41:31.731Z,12.70
2023-04-21T15:43:59.975Z,12.40
2023-04-21T15:46:27.060Z,12.10
2023-04-21T15:48:53.962Z,11.90
2023-04-21T15:51:20.895Z,12.00
2023-04-21T15:53:49.351Z,12.10
2023-04-21T15:56:16.895Z,12.30
2023-04-21T15:58:44.108Z,12.30
2023-04-21T16:01:11.540Z,12.20
2023-04-21T16:03:40.291Z,12.10
2023-04-21T16:06:07.860Z,11.70
2023-04-21T16:08:34.861Z,11.50
2023-04-21T16:11:01.799Z,11.40
2023-04-21T16:13:29.574Z,11.10
2023-04-21T16:15:56.851Z,11.30
2023-04-21T16:18:24.168Z,11.10
2023-04-21T16:20:51.429Z,11.20
2023-04-21T16:23:18.794Z,11.30
2023-04-21T16:25:45.823Z,11.40
2023-04-21T16:28:12.816Z,11.50
2023-04-21T16:30:43.644Z,11.50
2023-04-21T16:33:11.519Z,11.40
2023-04-21T16:35:39.153Z,11.50
2023-04-21T16:38:06.512Z,11.60
2023-04-21T16:40:33.658Z,11.60
2023-04-21T16:43:03.276Z,11.80
2023-04-21T16:45:30.407Z,11.70
2023-04-21T16:47:57.816Z,11.90
2023-04-21T16:50:25.309Z,12.10
2023-04-21T16:52:52.162Z,12.20
2023-04-21T16:55:19.579Z,12.10
2023-04-21T16:57:46.454Z,12.00
2023-04-21T17:00:14.027Z,12.00
2023-04-21T17:02:42.685Z,12.10
2023-04-21T17:05:12.415Z,12.00
2023-04-21T17:07:41.198Z,12.10
2023-04-21T17:10:08.781Z,12.10
2023-04-21T17:12:35.920Z,12.40
2023-04-21T17:15:02.932Z,12.50
2023-04-21T17:17:42.727Z,12.50
2023-04-21T17:20:13.676Z,12.50
2023-04-21T17:22:41.284Z,12.50
2023-04-21T17:25:09.414Z,12.70
2023-04-21T17:27:38.416Z,12.60
2023-04-21T17:30:06.399Z,12.70
2023-04-21T17:32:34.266Z,12.60
2023-04-21T17:35:01.846Z,12.70
2023-04-21T17:37:30.262Z,12.60
2023-04-21T17:39:59.737Z,12.60
2023-04-21T17:42:29.256Z,12.40
2023-04-21T17:44:56.247Z,12.50
2023-04-21T17:47:23.470Z,12.60
2023-04-21T17:49:50.516Z,12.50
2023-04-21T17:52:17.583Z,12.40
2023-04-21T17:54:45.600Z,12.20
2023-04-21T17:57:12.512Z,12.30
2023-04-21T17:59:39.656Z,12.40
2023-04-21T18:02:07.450Z,12.40
2023-04-21T18:04:37.935Z,12.40
2023-04-21T18:07:05.178Z,12.40
2023-04-21T18:09:32.180Z,12.40
2023-04-21T18:11:59.091Z,12.30
2023-04-21T18:14:26.281Z,12.20
2023-04-21T18:16:53.938Z,12.20
2023-04-21T18:19:20.954Z,12.20
2023-04-21T18:21:48.240Z,12.30
2023-04-21T18:24:15.615Z,12.30
2023-04-21T18:26:43.900Z,12.40
2023-04-21T18:29:10.848Z,12.70
2023-04-21T18:31:37.924Z,12.70
2023-04-21T18:34:06.067Z,12.80
2023-04-21T18:36:33.766Z,12.50
2023-04-21T18:39:01.326Z,12.60
2023-04-21T18:41:28.302Z,12.30
2023-04-21T18:43:55.253Z,12.10
2023-04-21T18:46:22.271Z,12.10
2023-04-21T18:48:49.712Z,12.00
2023-04-21T18:51:17.349Z,12.00
2023-04-21T18:53:46.223Z,12.00
2023-04-21T18:56:13.189Z,12.10
2023-04-21T18:58:40.313Z,11.80
2023-04-21T19:01:08.058Z,11.80
2023-04-21T19:03:35.410Z,11.70
2023-04-21T19:06:03.340Z,11.70
2023-04-21T19:08:41.385Z,11.70
2023-04-21T19:11:11.218Z,11.50
2023-04-21T19:13:38.655Z,11.50
2023-04-21T19:16:06.290Z,11.50
2023-04-21T19:18:33.350Z,11.50
2023-04-21T19:21:00.407Z,11.30
2023-04-21T19:23:27.460Z,11.30
2023-04-21T19:25:57.574Z,11.30
2023-04-21T19:28:24.678Z,11.30
2023-04-21T19:30:51.635Z,11.10
2023-04-21T19:33:18.718Z,11.20
2023-04-21T19:35:46.215Z,11.20
2023-04-21T19:38:13.246Z,11.20
2023-04-21T19:40:42.247Z,11.10
2023-04-21T19:43:09.112Z,11.10
2023-04-21T19:45:36.693Z,10.90
2023-04-21T19:48:04.747Z,11.00
2023-04-21T19:50:32.375Z,11.00
2023-04-21T19:52:59.260Z,11.20
2023-04-21T19:55:27.348Z,11.10
2023-04-21T19:57:54.175Z,11.10
2023-04-21T20:00:21.230Z,11.00
2023-04-21T20:02:48.202Z,11.20
2023-04-21T20:05:15.652Z,10.90
2023-04-21T20:07:42.792Z,10.80
2023-04-21T20:10:10.532Z,10.90
2023-04-21T20:12:37.558Z,10.60
2023-04-21T20:15:05.686Z,10.50
2023-04-21T20:17:33.280Z,10.40
2023-04-21T20:20:00.252Z,10.40
2023-04-21T20:22:27.424Z,10.30
2023-04-21T20:24:54.394Z,10.20
2023-04-21T20:27:21.389Z,10.20
2023-04-21T20:29:48.375Z,10.10
2023-04-21T20:32:15.417Z,10.10
2023-04-21T20:34:42.681Z,10.10
2023-04-21T20:37:10.951Z,10.00
2023-04-21T20:39:38.598Z,10.10
2023-04-21T20:42:13.163Z,10.00
2023-04-21T20:44:42.853Z,9.90
2023-04-21T20:47:12.787Z,10.00
2023-04-21T20:49:40.505Z,10.10
2023-04-21T20:52:07.632Z,10.00
2023-04-21T20:54:35.015Z,10.20
2023-04-21T20:57:02.400Z,10.30
2023-04-21T20:59:29.598Z,10.10
2023-04-21T21:01:56.611Z,9.80
2023-04-21T21:04:24.111Z,9.50
2023-04-21T21:06:51.180Z,9.40
2023-04-21T21:09:19.120Z,9.30
2023-04-21T21:11:46.186Z,9.20
2023-04-21T21:14:13.326Z,9.20
2023-04-21T21:16:40.730Z,9.00
2023-04-21T21:19:07.870Z,9.30
2023-04-21T21:21:34.959Z,9.10
2023-04-21T21:24:01.917Z,9.00
2023-04-21T21:26:29.396Z,9.00
2023-04-21T21:28:56.760Z,8.90
2023-04-21T21:31:25.607Z,8.90
2023-04-21T21:33:52.764Z,8.80
2023-04-21T21:36:19.860Z,8.80
2023-04-21T21:38:46.960Z,8.70
2023-04-21T21:41:14.073Z,8.60
2023-04-21T21:43:41.277Z,8.60
2023-04-21T21:46:09.156Z,8.70
2023-04-21T21:48:36.282Z,8.80
2023-04-21T21:51:05.294Z,8.80
2023-04-21T21:53:32.846Z,8.80
2023-04-21T21:56:00.446Z,8.70
2023-04-21T21:58:27.596Z,8.70
2023-04-21T22:00:55.126Z,8.70
2023-04-21T22:03:22.511Z,8.70
2023-04-21T22:05:52.884Z,8.60
2023-04-21T22:08:19.788Z,8.40
2023-04-21T22:10:46.911Z,8.50
2023-04-21T22:13:13.999Z,8.50
2023-04-21T22:15:41.347Z,8.50
2023-04-21T22:18:09.776Z,8.50
2023-04-21T22:20:36.811Z,8.30
2023-04-21T22:23:04.510Z,8.30
2023-04-21T22:25:31.758Z,8.40
2023-04-21T22:27:58.799Z,8.40
2023-04-21T22:30:26.147Z,8.30
2023-04-21T22:32:53.195Z,8.30
2023-04-21T22:35:20.495Z,8.30
2023-04-21T22:37:47.319Z,8.40
2023-04-21T22:40:14.401Z,8.40
2023-04-21T22:42:41.316Z,8.50
2023-04-21T22:45:11.779Z,8.50
2023-04-21T22:47:38.626Z,8.50
2023-04-21T22:50:06.225Z,8.50
2023-04-21T22:52:33.101Z,8.50
2023-04-21T22:55:00.063Z,8.50
2023-04-21T22:57:27.057Z,8.50
2023-04-21T22:59:54.187Z,8.50
2023-04-21T23:02:21.658Z,8.50
2023-04-21T23:04:48.647Z,8.50
2023-04-21T23:07:15.484Z,8.70
2023-04-21T23:09:42.520Z,8.70
2023-04-21T23:12:09.448Z,8.70
2023-04-21T23:14:36.372Z,8.80
2023-04-21T23:17:03.336Z,8.70
2023-04-21T23:19:30.513Z,8.60
2023-04-21T23:21:57.368Z,8.60
2023-04-21T23:24:24.445Z,8.60
2023-04-21T23:26:51.584Z,8.60
2023-04-21T23:29:18.591Z,8.60
2023-04-21T23:31:45.699Z,8.70
2023-04-21T23:34:12.769Z,8.70
2023-04-21T23:36:39.560Z,8.90
2023-04-21T23:39:06.445Z,8.90
2023-04-21T23:41:33.605Z,8.80
2023-04-21T23:44:00.581Z,8.80
2023-04-21T23:46:27.609Z,8.70
2023-04-21T23:48:54.586Z,8.70
2023-04-21T23:51:22.126Z,8.70
2023-04-21T23:53:49.093Z,8.70
2023-04-21T23:56:15.920Z,8.70
2023-04-21T23:58:42.879Z,8.70
